Trinity — WDC2625 — position and weather

sailwx.info

Track history (hours):
 
Tides and Currents Weather Stations Pressure Air Temp Water Temp Dewpoint Dewpoint Depression Visibility Wind Speed Wind Dir Waves Ship Positions

Trinity

Owner: Kirby Inland Marine, LP, Houston, TX. More information available from US FCC via Universal Licensing System and Coast Guard Vessel Documentation Center.

Last reported at 2018-Jun-20 15:00 UTC. Time now 2018-Jun-21 10:15 UTC.
Position N 29°22' W 094°53'.

Length 113 m; draft 2.4 m.

Type: . MMSI: 366995730.

Date/timePositionNaut miles runAvg speedWind from/ knotsBaromVisibWave heightAir tempDewpointWater temp
2018-Jun-20 15:00N 29°22' W 094°53'1 2.2
2018-Jun-20 14:30N 29°22' W 094°54'0 0.0
2018-Jun-20 13:58N 29°22' W 094°54'0 0.0
2018-Jun-20 13:29N 29°22' W 094°54'0 0.0
2018-Jun-20 13:00N 29°22' W 094°54'0 0.0
2018-Jun-20 12:29N 29°22' W 094°54'0 0.0
2018-Jun-20 03:14N 29°22' W 094°54'0 0.0
2018-Jun-20 03:00N 29°22' W 094°54'0 0.0
2018-Jun-20 02:30N 29°22' W 094°54'0 0.0
2018-Jun-20 02:00N 29°22' W 094°54'0 0.0
2018-Jun-20 01:30N 29°22' W 094°54'0 0.0
2018-Jun-20 00:57N 29°22' W 094°54'0 0.0
2018-Jun-20 00:28N 29°22' W 094°54'0 0.0
2018-Jun-19 23:59N 29°22' W 094°54'0 0.0
2018-Jun-19 23:20N 29°22' W 094°54'0 0.5
2018-Jun-19 23:01N 29°22' W 094°54'1 2.5
2018-Jun-19 22:28N 29°23' W 094°53'2 3.2
2018-Jun-19 22:00N 29°22' W 094°54'0 0.0
2018-Jun-19 21:30N 29°22' W 094°54'0 0.0
2018-Jun-19 21:00N 29°22' W 094°54'0 0.0
2018-Jun-19 20:30N 29°22' W 094°54'1 2.2
2018-Jun-19 19:59N 29°22' W 094°53'3 4.3
2018-Jun-19 19:25N 29°22' W 094°50'2 4.3
2018-Jun-19 19:00N 29°22' W 094°48'2 4.0
2018-Jun-19 18:30N 29°24' W 094°49'4 6.5
2018-Jun-19 17:52N 29°28' W 094°51'3 6.8
2018-Jun-19 17:29N 29°30' W 094°53'4 7.0
2018-Jun-19 16:56N 29°34' W 094°55'3 7.3
2018-Jun-19 16:30N 29°36' W 094°57'4 7.4
2018-Jun-19 16:00N 29°40' W 094°59'  
2018-Jun-15 10:56N 29°42' W 095°01'3 6.0
2018-Jun-15 10:30N 29°41' W 094°59'18 6.2
2018-Jun-15 07:40N 29°25' W 094°49'3 6.0
2018-Jun-15 07:14N 29°22' W 094°48'1 3.8
2018-Jun-15 07:00N 29°22' W 094°49'3 5.6
2018-Jun-15 06:30N 29°23' W 094°52'1 2.3
2018-Jun-15 06:00N 29°22' W 094°53'0 0.0
2018-Jun-15 05:30N 29°22' W 094°53'0 0.0
2018-Jun-15 05:00N 29°22' W 094°53'0 0.0
2018-Jun-15 04:30N 29°22' W 094°53'0 0.0
2018-Jun-15 04:00N 29°22' W 094°53'1 1.2
2018-Jun-15 03:30N 29°22' W 094°54'0 0.4
2018-Jun-15 02:59N 29°22' W 094°53'0 0.9
2018-Jun-15 02:30N 29°22' W 094°53'0 0.5
2018-Jun-15 01:59N 29°22' W 094°53'0 0.0
2018-Jun-15 01:28N 29°22' W 094°53'0 0.0
2018-Jun-15 01:00N 29°22' W 094°53'0 0.0
2018-Jun-15 00:28N 29°22' W 094°53'0 0.0
2018-Jun-14 23:58N 29°22' W 094°53'0 0.0
2018-Jun-14 23:30N 29°22' W 094°53'0 0.0
2018-Jun-14 22:56N 29°22' W 094°53'0 0.0
2018-Jun-14 22:29N 29°22' W 094°53'0 0.0
2018-Jun-14 21:34N 29°22' W 094°53'0 0.7
2018-Jun-14 21:30N 29°22' W 094°53'0 0.0
2018-Jun-14 20:56N 29°22' W 094°53'0 0.0
2018-Jun-14 20:30N 29°22' W 094°53'0 0.0
2018-Jun-14 19:57N 29°22' W 094°53'0 0.0
2018-Jun-14 19:30N 29°22' W 094°53'0 0.0
2018-Jun-14 19:00N 29°22' W 094°53'0 0.0
2018-Jun-14 18:30N 29°22' W 094°53'0 0.0
2018-Jun-14 18:00N 29°22' W 094°53'0 0.0
2018-Jun-14 17:29N 29°22' W 094°53'0 0.1
2018-Jun-14 16:59N 29°22' W 094°53'0 0.1
2018-Jun-14 16:30N 29°22' W 094°53'0 0.0
2018-Jun-14 16:00N 29°22' W 094°53'0 0.0
2018-Jun-14 15:30N 29°22' W 094°53'0 0.0
2018-Jun-14 15:00N 29°22' W 094°53'0 0.0
2018-Jun-14 14:30N 29°22' W 094°53'0 0.0
2018-Jun-14 13:59N 29°22' W 094°53'0 0.0
2018-Jun-14 13:30N 29°22' W 094°53'0 0.0
2018-Jun-14 12:59N 29°22' W 094°53'0 0.0
2018-Jun-14 12:28N 29°22' W 094°53'0 0.0
2018-Jun-14 11:59N 29°22' W 094°53'0 0.0
2018-Jun-14 11:30N 29°22' W 094°53'0 0.0
2018-Jun-14 10:59N 29°22' W 094°53'0 0.0
2018-Jun-14 10:30N 29°22' W 094°53'0 0.1
2018-Jun-14 10:00N 29°22' W 094°53'0 0.0
2018-Jun-14 09:30N 29°22' W 094°53'0 0.0
2018-Jun-14 08:59N 29°22' W 094°53'0 0.0
2018-Jun-14 08:28N 29°22' W 094°53'0 0.0
2018-Jun-14 07:59N 29°22' W 094°53'0 0.0
2018-Jun-14 07:30N 29°22' W 094°53'0 0.0
2018-Jun-14 06:56N 29°22' W 094°53'0 0.0
2018-Jun-14 06:26N 29°22' W 094°53'0 0.0
2018-Jun-14 06:00N 29°22' W 094°53'0 0.0
2018-Jun-14 05:20N 29°22' W 094°53'0 0.0
2018-Jun-14 04:59N 29°22' W 094°53'0 0.0
2018-Jun-14 04:30N 29°22' W 094°53'0 0.0
2018-Jun-14 03:56N 29°22' W 094°53'0 0.0
2018-Jun-14 03:28N 29°22' W 094°53'0 0.0
2018-Jun-14 02:53N 29°22' W 094°53'0 0.0
2018-Jun-14 02:24N 29°22' W 094°53'0 0.0
2018-Jun-14 01:59N 29°22' W 094°53'0 0.0
2018-Jun-14 01:28N 29°22' W 094°53'3 5.3
2018-Jun-14 00:54N 29°22' W 094°50'2 5.2
2018-Jun-14 00:29N 29°22' W 094°48'2 3.5
2018-Jun-14 00:00N 29°23' W 094°46'0 0.0
2018-Jun-13 23:30N 29°23' W 094°46'0 0.0
2018-Jun-13 22:58N 29°23' W 094°46'0 0.0
2018-Jun-13 22:30N 29°23' W 094°46'0 0.0
2018-Jun-13 22:00N 29°23' W 094°46'0 0.0
2018-Jun-13 21:30N 29°23' W 094°46'0 0.0
2018-Jun-13 20:59N 29°23' W 094°46'0 0.0
2018-Jun-13 19:54N 29°23' W 094°46'0 0.0
2018-Jun-13 19:27N 29°23' W 094°46'0 0.0
2018-Jun-13 18:57N 29°23' W 094°46'0 0.0
2018-Jun-13 18:30N 29°23' W 094°46'0 0.0
2018-Jun-13 18:00N 29°23' W 094°46'0 0.0
2018-Jun-13 17:24N 29°23' W 094°46'0 0.0
2018-Jun-13 17:00N 29°23' W 094°46'0 0.0
2018-Jun-13 16:30N 29°23' W 094°46'0 0.0
2018-Jun-13 15:54N 29°23' W 094°46'0 0.0
2018-Jun-13 15:30N 29°23' W 094°46'0 0.0
2018-Jun-13 14:58N 29°23' W 094°46'0 0.0
2018-Jun-13 14:20N 29°23' W 094°46'0 0.0
2018-Jun-13 13:32N 29°23' W 094°46'0 0.1
2018-Jun-13 13:29N 29°23' W 094°46'0 0.0
2018-Jun-13 13:01N 29°23' W 094°46'0 0.0
2018-Jun-13 12:29N 29°23' W 094°46'0 0.0
2018-Jun-13 11:58N 29°23' W 094°46'0 0.0
2018-Jun-13 11:26N 29°23' W 094°46'0 0.0
2018-Jun-13 10:55N 29°23' W 094°46'0 0.0
2018-Jun-13 10:29N 29°23' W 094°46'0 0.0
2018-Jun-13 09:53N 29°23' W 094°46'0 0.0
2018-Jun-13 09:26N 29°23' W 094°46'0 0.0
2018-Jun-13 08:58N 29°23' W 094°46'0 0.0
2018-Jun-13 08:28N 29°23' W 094°46'0 0.0
2018-Jun-13 07:58N 29°23' W 094°46'1 1.4
2018-Jun-13 07:26N 29°24' W 094°46'3 1.6
2018-Jun-13 05:30N 29°26' W 094°43'0 0.0
2018-Jun-13 04:46N 29°26' W 094°43'0 0.0
2018-Jun-13 04:22N 29°26' W 094°43'0 0.0
2018-Jun-13 04:00N 29°26' W 094°43'0 0.0
2018-Jun-13 03:30N 29°26' W 094°43'0 0.8
2018-Jun-13 03:00N 29°25' W 094°43'0 0.0
2018-Jun-13 02:24N 29°25' W 094°43'0 0.8
2018-Jun-13 01:58N 29°26' W 094°43'0 0.1
2018-Jun-12 20:24N 29°25' W 094°43'0 0.0
2018-Jun-12 19:59N 29°25' W 094°43'0 0.0
2018-Jun-12 19:29N 29°25' W 094°43'0 0.0
2018-Jun-12 18:59N 29°25' W 094°43'0 0.0
2018-Jun-12 15:26N 29°25' W 094°43'0 0.0
2018-Jun-12 14:58N 29°25' W 094°43'0 0.0
2018-Jun-12 14:15N 29°25' W 094°43'0 0.0
2018-Jun-12 13:47N 29°25' W 094°43'1 3.5
2018-Jun-12 13:29N 29°25' W 094°44'3 6.1
2018-Jun-12 13:00N 29°23' W 094°47'2 4.0
2018-Jun-12 12:28N 29°23' W 094°49'3 3.7
2018-Jun-12 11:45N 29°26' W 094°50'9 6.1
2018-Jun-12 10:19N 29°34' W 094°55'2 6.7
2018-Jun-12 09:59N 29°35' W 094°56'3 6.7
2018-Jun-12 09:29N 29°39' W 094°58'3 6.6
2018-Jun-12 09:00N 29°41' W 094°59'2 0.0
2018-Jun-10 20:47N 29°42' W 095°01'2 6.1
2018-Jun-10 20:30N 29°41' W 094°59'3 6.1
2018-Jun-10 19:58N 29°38' W 094°58'5 6.2
2018-Jun-10 19:09N 29°34' W 094°55'14 5.9
2018-Jun-10 16:52N 29°22' W 094°48'2 6.0
2018-Jun-10 16:30N 29°20' W 094°50'3 5.8
2018-Jun-10 16:00N 29°18' W 094°53'2 4.9
2018-Jun-10 15:30N 29°17' W 094°55'2 5.0
2018-Jun-10 15:00N 29°17' W 094°58'  
Track history (hours):
 
Tides and Currents Weather Stations Pressure Air Temp Water Temp Dewpoint Dewpoint Depression Visibility Wind Speed Wind Dir Waves Ship Positions

Trinity

Owner: Kirby Inland Marine, LP, Houston, TX. More information available from US FCC via Universal Licensing System and Coast Guard Vessel Documentation Center.

Last reported at 2018-Jun-20 15:00 UTC. Time now 2018-Jun-21 10:15 UTC.
Position N 29°22' W 094°53'.

Length 113 m; draft 2.4 m.

Type: . MMSI: 366995730.

Date/timePositionNaut miles runAvg speedWind from/ knotsBaromVisibWave heightAir tempDewpointWater temp
2018-Jun-20 15:00N 29°22' W 094°53'1 2.2
2018-Jun-20 14:30N 29°22' W 094°54'0 0.0
2018-Jun-20 13:58N 29°22' W 094°54'0 0.0
2018-Jun-20 13:29N 29°22' W 094°54'0 0.0
2018-Jun-20 13:00N 29°22' W 094°54'0 0.0
2018-Jun-20 12:29N 29°22' W 094°54'0 0.0
2018-Jun-20 03:14N 29°22' W 094°54'0 0.0
2018-Jun-20 03:00N 29°22' W 094°54'0 0.0
2018-Jun-20 02:30N 29°22' W 094°54'0 0.0
2018-Jun-20 02:00N 29°22' W 094°54'0 0.0
2018-Jun-20 01:30N 29°22' W 094°54'0 0.0
2018-Jun-20 00:57N 29°22' W 094°54'0 0.0
2018-Jun-20 00:28N 29°22' W 094°54'0 0.0
2018-Jun-19 23:59N 29°22' W 094°54'0 0.0
2018-Jun-19 23:20N 29°22' W 094°54'0 0.5
2018-Jun-19 23:01N 29°22' W 094°54'1 2.5
2018-Jun-19 22:28N 29°23' W 094°53'2 3.2
2018-Jun-19 22:00N 29°22' W 094°54'0 0.0
2018-Jun-19 21:30N 29°22' W 094°54'0 0.0
2018-Jun-19 21:00N 29°22' W 094°54'0 0.0
2018-Jun-19 20:30N 29°22' W 094°54'1 2.2
2018-Jun-19 19:59N 29°22' W 094°53'3 4.3
2018-Jun-19 19:25N 29°22' W 094°50'2 4.3
2018-Jun-19 19:00N 29°22' W 094°48'2 4.0
2018-Jun-19 18:30N 29°24' W 094°49'4 6.5
2018-Jun-19 17:52N 29°28' W 094°51'3 6.8
2018-Jun-19 17:29N 29°30' W 094°53'4 7.0
2018-Jun-19 16:56N 29°34' W 094°55'3 7.3
2018-Jun-19 16:30N 29°36' W 094°57'4 7.4
2018-Jun-19 16:00N 29°40' W 094°59'  
2018-Jun-15 10:56N 29°42' W 095°01'3 6.0
2018-Jun-15 10:30N 29°41' W 094°59'18 6.2
2018-Jun-15 07:40N 29°25' W 094°49'3 6.0
2018-Jun-15 07:14N 29°22' W 094°48'1 3.8
2018-Jun-15 07:00N 29°22' W 094°49'3 5.6
2018-Jun-15 06:30N 29°23' W 094°52'1 2.3
2018-Jun-15 06:00N 29°22' W 094°53'0 0.0
2018-Jun-15 05:30N 29°22' W 094°53'0 0.0
2018-Jun-15 05:00N 29°22' W 094°53'0 0.0
2018-Jun-15 04:30N 29°22' W 094°53'0 0.0
2018-Jun-15 04:00N 29°22' W 094°53'1 1.2
2018-Jun-15 03:30N 29°22' W 094°54'0 0.4
2018-Jun-15 02:59N 29°22' W 094°53'0 0.9
2018-Jun-15 02:30N 29°22' W 094°53'0 0.5
2018-Jun-15 01:59N 29°22' W 094°53'0 0.0
2018-Jun-15 01:28N 29°22' W 094°53'0 0.0
2018-Jun-15 01:00N 29°22' W 094°53'0 0.0
2018-Jun-15 00:28N 29°22' W 094°53'0 0.0
2018-Jun-14 23:58N 29°22' W 094°53'0 0.0
2018-Jun-14 23:30N 29°22' W 094°53'0 0.0
2018-Jun-14 22:56N 29°22' W 094°53'0 0.0
2018-Jun-14 22:29N 29°22' W 094°53'0 0.0
2018-Jun-14 21:34N 29°22' W 094°53'0 0.7
2018-Jun-14 21:30N 29°22' W 094°53'0 0.0
2018-Jun-14 20:56N 29°22' W 094°53'0 0.0
2018-Jun-14 20:30N 29°22' W 094°53'0 0.0
2018-Jun-14 19:57N 29°22' W 094°53'0 0.0
2018-Jun-14 19:30N 29°22' W 094°53'0 0.0
2018-Jun-14 19:00N 29°22' W 094°53'0 0.0
2018-Jun-14 18:30N 29°22' W 094°53'0 0.0
2018-Jun-14 18:00N 29°22' W 094°53'0 0.0
2018-Jun-14 17:29N 29°22' W 094°53'0 0.1
2018-Jun-14 16:59N 29°22' W 094°53'0 0.1
2018-Jun-14 16:30N 29°22' W 094°53'0 0.0
2018-Jun-14 16:00N 29°22' W 094°53'0 0.0
2018-Jun-14 15:30N 29°22' W 094°53'0 0.0
2018-Jun-14 15:00N 29°22' W 094°53'0 0.0
2018-Jun-14 14:30N 29°22' W 094°53'0 0.0
2018-Jun-14 13:59N 29°22' W 094°53'0 0.0
2018-Jun-14 13:30N 29°22' W 094°53'0 0.0
2018-Jun-14 12:59N 29°22' W 094°53'0 0.0
2018-Jun-14 12:28N 29°22' W 094°53'0 0.0
2018-Jun-14 11:59N 29°22' W 094°53'0 0.0
2018-Jun-14 11:30N 29°22' W 094°53'0 0.0
2018-Jun-14 10:59N 29°22' W 094°53'0 0.0
2018-Jun-14 10:30N 29°22' W 094°53'0 0.1
2018-Jun-14 10:00N 29°22' W 094°53'0 0.0
2018-Jun-14 09:30N 29°22' W 094°53'0 0.0
2018-Jun-14 08:59N 29°22' W 094°53'0 0.0
2018-Jun-14 08:28N 29°22' W 094°53'0 0.0
2018-Jun-14 07:59N 29°22' W 094°53'0 0.0
2018-Jun-14 07:30N 29°22' W 094°53'0 0.0
2018-Jun-14 06:56N 29°22' W 094°53'0 0.0
2018-Jun-14 06:26N 29°22' W 094°53'0 0.0
2018-Jun-14 06:00N 29°22' W 094°53'0 0.0
2018-Jun-14 05:20N 29°22' W 094°53'0 0.0
2018-Jun-14 04:59N 29°22' W 094°53'0 0.0
2018-Jun-14 04:30N 29°22' W 094°53'0 0.0
2018-Jun-14 03:56N 29°22' W 094°53'0 0.0
2018-Jun-14 03:28N 29°22' W 094°53'0 0.0
2018-Jun-14 02:53N 29°22' W 094°53'0 0.0
2018-Jun-14 02:24N 29°22' W 094°53'0 0.0
2018-Jun-14 01:59N 29°22' W 094°53'0 0.0
2018-Jun-14 01:28N 29°22' W 094°53'3 5.3
2018-Jun-14 00:54N 29°22' W 094°50'2 5.2
2018-Jun-14 00:29N 29°22' W 094°48'2 3.5
2018-Jun-14 00:00N 29°23' W 094°46'0 0.0
2018-Jun-13 23:30N 29°23' W 094°46'0 0.0
2018-Jun-13 22:58N 29°23' W 094°46'0 0.0
2018-Jun-13 22:30N 29°23' W 094°46'0 0.0
2018-Jun-13 22:00N 29°23' W 094°46'0 0.0
2018-Jun-13 21:30N 29°23' W 094°46'0 0.0
2018-Jun-13 20:59N 29°23' W 094°46'0 0.0
2018-Jun-13 19:54N 29°23' W 094°46'0 0.0
2018-Jun-13 19:27N 29°23' W 094°46'0 0.0
2018-Jun-13 18:57N 29°23' W 094°46'0 0.0
2018-Jun-13 18:30N 29°23' W 094°46'0 0.0
2018-Jun-13 18:00N 29°23' W 094°46'0 0.0
2018-Jun-13 17:24N 29°23' W 094°46'0 0.0
2018-Jun-13 17:00N 29°23' W 094°46'0 0.0
2018-Jun-13 16:30N 29°23' W 094°46'0 0.0
2018-Jun-13 15:54N 29°23' W 094°46'0 0.0
2018-Jun-13 15:30N 29°23' W 094°46'0 0.0
2018-Jun-13 14:58N 29°23' W 094°46'0 0.0
2018-Jun-13 14:20N 29°23' W 094°46'0 0.0
2018-Jun-13 13:32N 29°23' W 094°46'0 0.1
2018-Jun-13 13:29N 29°23' W 094°46'0 0.0
2018-Jun-13 13:01N 29°23' W 094°46'0 0.0
2018-Jun-13 12:29N 29°23' W 094°46'0 0.0
2018-Jun-13 11:58N 29°23' W 094°46'0 0.0
2018-Jun-13 11:26N 29°23' W 094°46'0 0.0
2018-Jun-13 10:55N 29°23' W 094°46'0 0.0
2018-Jun-13 10:29N 29°23' W 094°46'0 0.0
2018-Jun-13 09:53N 29°23' W 094°46'0 0.0
2018-Jun-13 09:26N 29°23' W 094°46'0 0.0
2018-Jun-13 08:58N 29°23' W 094°46'0 0.0
2018-Jun-13 08:28N 29°23' W 094°46'0 0.0
2018-Jun-13 07:58N 29°23' W 094°46'1 1.4
2018-Jun-13 07:26N 29°24' W 094°46'3 1.6
2018-Jun-13 05:30N 29°26' W 094°43'0 0.0
2018-Jun-13 04:46N 29°26' W 094°43'0 0.0
2018-Jun-13 04:22N 29°26' W 094°43'0 0.0
2018-Jun-13 04:00N 29°26' W 094°43'0 0.0
2018-Jun-13 03:30N 29°26' W 094°43'0 0.8
2018-Jun-13 03:00N 29°25' W 094°43'0 0.0
2018-Jun-13 02:24N 29°25' W 094°43'0 0.8
2018-Jun-13 01:58N 29°26' W 094°43'0 0.1
2018-Jun-12 20:24N 29°25' W 094°43'0 0.0
2018-Jun-12 19:59N 29°25' W 094°43'0 0.0
2018-Jun-12 19:29N 29°25' W 094°43'0 0.0
2018-Jun-12 18:59N 29°25' W 094°43'0 0.0
2018-Jun-12 15:26N 29°25' W 094°43'0 0.0
2018-Jun-12 14:58N 29°25' W 094°43'0 0.0
2018-Jun-12 14:15N 29°25' W 094°43'0 0.0
2018-Jun-12 13:47N 29°25' W 094°43'1 3.5
2018-Jun-12 13:29N 29°25' W 094°44'3 6.1
2018-Jun-12 13:00N 29°23' W 094°47'2 4.0
2018-Jun-12 12:28N 29°23' W 094°49'3 3.7
2018-Jun-12 11:45N 29°26' W 094°50'9 6.1
2018-Jun-12 10:19N 29°34' W 094°55'2 6.7
2018-Jun-12 09:59N 29°35' W 094°56'3 6.7
2018-Jun-12 09:29N 29°39' W 094°58'3 6.6
2018-Jun-12 09:00N 29°41' W 094°59'2 0.0
2018-Jun-10 20:47N 29°42' W 095°01'2 6.1
2018-Jun-10 20:30N 29°41' W 094°59'3 6.1
2018-Jun-10 19:58N 29°38' W 094°58'5 6.2
2018-Jun-10 19:09N 29°34' W 094°55'14 5.9
2018-Jun-10 16:52N 29°22' W 094°48'2 6.0
2018-Jun-10 16:30N 29°20' W 094°50'3 5.8
2018-Jun-10 16:00N 29°18' W 094°53'2 4.9
2018-Jun-10 15:30N 29°17' W 094°55'2 5.0
2018-Jun-10 15:00N 29°17' W 094°58'  

Dump ship's entire track history